• Join FlightAware (Why Join?)
  • Login
  • US Flag 
07:25PM EST


 

Airport Tracker/Info


-or-


 

Live Flight TrackerFlight Track Log ✈ UAL653 ✈ 26-May-2013 ✈ KLAX - KIAD

Flight Track Log - Related Links

Times and Time Zones

All times are in EDT time to prevent confusion due to time zone crossing. See the UAL653 flight status page for this flight to view local times or setup timezone preferences in your user account.

Time Position Orientation Groundspeed Altitude Reporting Facility
EDT Latitude Longitude Course Direction KTS MPH feet Rate Location/Type
04:29PM 33.9333 -118.4333 90° East 166 191 1,500  Level Southern California TRACON
04:30PM 33.9000 -118.5000 239° Southwest 232 267 3,400 2,100 Climbing Southern California TRACON
04:31PM 33.7523 -118.6031 132° Southeast  Level FlightAware Approximate
04:31PM 33.8619 -118.5542 230° Southwest 254 292 5,400  Level Los Angeles Center
04:32PM 33.6772 -118.4796 101° East  Level FlightAware Approximate
04:32PM 33.7914 -118.5503 177° South 279 321 7,900  Level Los Angeles Center
04:33PM 33.6333 -118.3324 90° East  Level FlightAware Approximate
04:33PM 33.7131 -118.5250 165° South 296 341 10,200  Level Los Angeles Center
04:34PM 33.6333 -118.1749 90° East  Level FlightAware Approximate
04:34PM 33.6658 -118.4325 122° Southeast 348 400 11,600  Level Los Angeles Center
04:35PM 33.6408 -118.2842 101° East 386 444 13,600 1,800 Climbing Los Angeles Center
04:36PM 33.6433 -118.1478 89° East 414 476 15,400 1,740 Climbing Los Angeles Center
04:37PM 33.6442 -118.0056 90° East 425 489 17,300 1,500 Climbing Los Angeles Center
04:38PM 33.6442 -117.8575 90° East 442 509 18,600 1,500 Climbing Los Angeles Center
04:39PM 33.6433 -117.6731 90° East 462 532 20,500 1,560 Climbing Los Angeles Center
04:40PM 33.6417 -117.5136 91° East 478 550 21,900 1,260 Climbing Los Angeles Center
04:41PM 33.6400 -117.3475 91° East 496 571 23,200 1,260 Climbing Los Angeles Center
04:42PM 33.6422 -117.1758 89° East 513 590 24,600 840 Climbing Los Angeles Center
04:43PM 33.6392 -117.0025 91° East 524 603 25,000 300 Climbing Los Angeles Center
04:44PM 33.6378 -116.7858 90° East 523 602 25,400 840 Climbing Los Angeles Center
04:45PM 33.6353 -116.6117 91° East 518 596 27,000 1,200 Climbing Los Angeles Center
04:46PM 33.6342 -116.3986 90° East 529 609 27,900 480 Climbing Los Angeles Center
04:47PM 33.6464 -116.2183 85° East 539 620 28,000 480 Climbing Los Angeles Center
04:48PM 33.6950 -116.0456 71° East 544 626 29,000 900 Climbing Los Angeles Center
04:50PM 33.7475 -115.8764 69° East 539 620 29,900 900 Climbing Los Angeles Center
04:51PM 33.7983 -115.7036 70° East 546 628 30,900 1,080 Climbing Los Angeles Center
04:52PM 33.8475 -115.5314 71° East 546 628 32,200 1,200 Climbing Los Angeles Center
04:53PM 33.8964 -115.3633 71° East 534 615 33,500 960 Climbing Los Angeles Center
04:54PM 33.9533 -115.1606 71° East 533 613 34,200 840 Climbing Los Angeles Center
04:55PM 34.0053 -114.9908 70° East 539 620 35,300 960 Climbing Los Angeles Center
04:56PM 34.0531 -114.8239 71° East 529 609 36,200 720 Climbing Los Angeles Center
04:57PM 34.0983 -114.6575 72° East 523 602 36,900 360 Climbing Los Angeles Center
04:58PM 34.1469 -114.4897 71° East 529 609 37,000  Climbing Los Angeles Center
04:59PM 34.1969 -114.3219 70° East 532 612 37,000  Level Los Angeles Center
04:59PM 34.2111 -114.2678 72° East 528 608 37,000  Level Albuquerque Center
05:00PM 34.2600 -114.0953 71° East 534 615 37,000  Level Albuquerque Center
05:01PM 34.3089 -113.9219 71° East 540 621 37,000  Level Albuquerque Center
05:02PM 34.3672 -113.7153 71° East 542 624 37,000  Level Albuquerque Center
05:03PM 34.4147 -113.5403 72° East 542 624 37,000  Level Albuquerque Center
05:04PM 34.4619 -113.3761 71° East 539 620 37,000  Level Albuquerque Center
05:05PM 34.5089 -113.2050 72° East 538 619 37,000  Level Albuquerque Center
05:06PM 34.5553 -113.0356 72° East 536 617 37,000  Level Albuquerque Center
05:07PM 34.5997 -112.8664 72° East 534 615 37,000  Level Albuquerque Center
05:08PM 34.6444 -112.6983 72° East 531 611 37,000  Level Albuquerque Center
05:09PM 34.6967 -112.4942 73° East 533 613 37,000  Level Albuquerque Center
05:10PM 34.7161 -112.3347 82° East 533 613 37,000  Level Albuquerque Center
05:11PM 34.7328 -112.1575 83° East 529 609 37,000  Level Albuquerque Center
05:12PM 34.7481 -111.9789 84° East 529 609 37,000  Level Albuquerque Center
05:13PM 34.7636 -111.7906 84° East 530 610 37,000  Level Albuquerque Center
05:14PM 34.7814 -111.5869 84° East 527 606 37,000  Level Albuquerque Center
05:16PM 34.7972 -111.4067 84° East 531 611 37,000  Level Albuquerque Center
05:17PM 34.8119 -111.2294 84° East 529 609 37,000  Level Albuquerque Center
05:18PM 34.8275 -111.0506 84° East 530 610 37,000  Level Albuquerque Center
05:19PM 34.8417 -110.8711 84° East 531 611 37,000  Level Albuquerque Center
05:20PM 34.8583 -110.6642 84° East 529 609 37,000  Level Albuquerque Center
05:21PM 34.8719 -110.4928 84° East 530 610 37,000  Level Albuquerque Center
05:22PM 34.8842 -110.3206 85° East 533 613 37,000  Level Albuquerque Center
05:23PM 34.9011 -110.1217 84° East 532 612 37,000  Level Albuquerque Center
05:24PM 34.9125 -109.9475 85° East 535 616 37,000  Level Albuquerque Center
05:25PM 34.9278 -109.7453 85° East 538 619 37,000  Level Albuquerque Center
05:26PM 34.9394 -109.5739 85° East 534 615 37,000  Level Albuquerque Center
05:27PM 34.9508 -109.4011 85° East 535 616 37,000  Level Albuquerque Center
05:28PM 34.9636 -109.2011 85° East 533 613 37,000  Level Albuquerque Center
05:29PM 34.9742 -109.0292 86° East 532 612 37,000  Level Albuquerque Center
05:30PM 34.9803 -108.8275 88° East 533 613 37,000  Level Albuquerque Center
05:31PM 34.9869 -108.6553 87° East 533 613 37,000  Level Albuquerque Center
05:32PM 34.9958 -108.4547 87° East 532 612 37,000  Level Albuquerque Center
05:33PM 35.0017 -108.2831 88° East 531 611 37,000  Level Albuquerque Center
05:34PM 35.0094 -108.1111 87° East 531 611 37,000  Level Albuquerque Center
05:35PM 35.0153 -107.9128 88° East 527 606 37,000  Level Albuquerque Center
05:36PM 35.0197 -107.7283 88° East 531 611 37,000  Level Albuquerque Center
05:37PM 35.0236 -107.5492 88° East 529 609 37,000  Level Albuquerque Center
05:38PM 35.0289 -107.3706 88° East 529 609 37,000  Level Albuquerque Center
05:39PM 35.0339 -107.1719 88° East 523 602 37,000  Level Albuquerque Center
05:40PM 35.0394 -107.0031 88° East 520 598 37,000  Level Albuquerque Center
05:41PM 35.0436 -106.8386 88° East 510 587 37,000  Level Albuquerque Center
05:42PM 35.0528 -106.6458 87° East 510 587 37,000  Level Albuquerque Center
05:43PM 35.0644 -106.4803 85° East 514 592 37,000  Level Albuquerque Center
05:44PM 35.0736 -106.3097 86° East 505 581 37,000  Level Albuquerque Center
05:45PM 35.0828 -106.1392 86° East 504 580 37,000  Level Albuquerque Center
05:46PM 35.0906 -105.9675 87° East 505 581 37,000  Level Albuquerque Center
05:47PM 35.1003 -105.7808 86° East 506 582 37,000  Level Albuquerque Center
05:48PM 35.1064 -105.6069 87° East 508 585 37,000  Level Albuquerque Center
05:49PM 35.1125 -105.4319 88° East 511 588 37,000  Level Albuquerque Center
05:50PM 35.1197 -105.2567 87° East 513 590 37,000  Level Albuquerque Center
05:51PM 35.1275 -105.0814 87° East 513 590 37,000  Level Albuquerque Center
05:52PM 35.1381 -104.8756 86° East 516 594 37,000  Level Albuquerque Center
05:53PM 35.1458 -104.6994 87° East 515 593 37,000  Level Albuquerque Center
05:54PM 35.1542 -104.5247 87° East 521 600 37,000  Level Albuquerque Center
05:55PM 35.1597 -104.3461 88° East 527 606 37,000  Level Albuquerque Center
05:56PM 35.1658 -104.1683 88° East 525 604 37,000  Level Albuquerque Center
05:57PM 35.1711 -103.9906 88° East 525 604 37,000  Level Albuquerque Center
05:58PM 35.1761 -103.8136 88° East 526 605 37,000  Level Albuquerque Center
06:00PM 35.1825 -103.6356 87° East 525 604 37,000  Level Albuquerque Center
06:01PM 35.1892 -103.4286 88° East 520 598 37,000  Level Albuquerque Center
06:02PM 35.1953 -103.2511 88° East 520 598 37,000  Level Albuquerque Center
06:03PM 35.2011 -103.0756 88° East 516 594 37,000  Level Albuquerque Center
06:04PM 35.2053 -102.9014 88° East 513 590 37,000  Level Albuquerque Center
06:05PM 35.2114 -102.7289 87° East 509 586 37,000  Level Albuquerque Center
06:06PM 35.2161 -102.5569 88° East 508 585 37,000  Level Albuquerque Center
06:07PM 35.2192 -102.3861 89° East 505 581 37,000  Level Albuquerque Center
06:08PM 35.2222 -102.2153 89° East 504 580 37,000  Level Albuquerque Center
06:09PM 35.2250 -102.0456 89° East 502 578 37,000  Level Albuquerque Center
06:10PM 35.2303 -101.8639 88° East 503 579 37,000  Level Albuquerque Center
06:11PM 35.2347 -101.6911 88° East 504 580 37,000  Level Albuquerque Center
06:12PM 35.2433 -101.5139 87° East 504 580 37,000  Level Albuquerque Center
06:13PM 35.2519 -101.3414 86° East 507 583 37,000  Level Albuquerque Center
06:14PM 35.2583 -101.1728 87° East 506 582 37,000  Level Albuquerque Center
06:15PM 35.2661 -101.0017 87° East 506 582 37,000  Level Albuquerque Center
06:16PM 35.2742 -100.7969 87° East 504 580 37,000  Level Albuquerque Center
06:17PM 35.2822 -100.6217 87° East 504 580 37,000  Level Albuquerque Center
06:18PM 35.2883 -100.4508 87° East 504 580 37,000  Level Albuquerque Center
06:19PM 35.2964 -100.2806 87° East 503 579 37,000  Level Albuquerque Center
06:20PM 35.3011 -100.1097 88° East 503 579 37,000  Level Albuquerque Center
06:21PM 35.3064 -99.9397 88° East 502 578 37,000  Level Albuquerque Center
06:22PM 35.3117 -99.7694 88° East 501 577 37,000  Level Albuquerque Center
06:23PM 35.3167 -99.5994 88° East 502 578 37,000  Level Albuquerque Center
06:24PM 35.3222 -99.4303 88° East 500 575 37,000  Level Albuquerque Center
06:25PM 35.3258 -99.2658 88° East 497 572 37,000  Level Fort Worth Center
06:26PM 35.3281 -99.0981 89° East 497 572 37,000  Level Fort Worth Center
06:27PM 35.3322 -98.9278 88° East 497 572 37,000  Level Fort Worth Center
06:28PM 35.3342 -98.7622 89° East 497 572 37,000  Level Fort Worth Center
06:29PM 35.3400 -98.5969 87° East 491 565 37,000  Level Fort Worth Center
06:30PM 35.3436 -98.4494 88° East 491 565 37,000  Level Fort Worth Center
06:31PM 35.3489 -98.2839 88° East 486 559 37,000  Level Fort Worth Center
06:32PM 35.3500 -98.1161 89° East 481 554 37,000  Level Fort Worth Center
06:33PM 35.3531 -97.9481 89° East 481 554 37,000  Level Fort Worth Center
06:34PM 35.3556 -97.7825 89° East 481 554 37,000  Level Fort Worth Center
06:35PM 35.3581 -97.6172 89° East 481 554 37,000  Level Fort Worth Center
06:36PM 35.3644 -97.4236 88° East 504 580 37,000  Level Fort Worth Center
06:37PM 35.3686 -97.2736 88° East 504 580 37,000  Level Fort Worth Center
06:38PM 35.3683 -97.0878 90° East 498 573 37,000  Level Fort Worth Center
06:39PM 35.3719 -96.9222 88° East 488 562 37,000  Level Fort Worth Center
06:40PM 35.3753 -96.7567 89° East 483 556 37,000  Level Fort Worth Center
06:41PM 35.3764 -96.5911 89° East 483 556 37,000  Level Fort Worth Center
06:42PM 35.3794 -96.4258 89° East 483 556 37,000  Level Fort Worth Center
06:43PM 35.3822 -96.2603 89° East 478 550 37,000  Level Fort Worth Center
06:44PM 35.3828 -96.0947 90° East 478 550 37,000  Level Fort Worth Center
06:45PM 35.3828 -95.9267 90° East 478 550 37,000  Level Fort Worth Center
06:46PM 35.3853 -95.7814 89° East 478 550 37,000  Level Fort Worth Center
06:47PM 35.3869 -95.6108 89° East 478 550 37,000  Level Fort Worth Center
06:48PM 35.3886 -95.4453 89° East 478 550 37,000  Level Fort Worth Center
06:49PM 35.3856 -95.2847 91° East 480 552 37,000  Level Memphis Center
06:50PM 35.3858 -95.1167 90° East 501 577 37,000  Level Memphis Center
06:51PM 35.3881 -94.9514 89° East 496 571 37,000  Level Memphis Center
06:52PM 35.3897 -94.7833 89° East 496 571 37,000  Level Memphis Center
06:53PM 35.3894 -94.6178 90° East 496 571 37,000  Level Memphis Center
06:54PM 35.3886 -94.4497 90° East 496 571 37,000  Level Memphis Center
06:55PM 35.3878 -94.2842 90° East 496 571 37,000  Level Memphis Center
06:56PM 35.3764 -94.1181 95° East 496 571 37,000  Level Memphis Center
06:57PM 35.3644 -93.9547 95° East 491 565 37,000  Level Memphis Center
06:58PM 35.3522 -93.7911 95° East 486 559 37,000  Level Memphis Center
06:59PM 35.3400 -93.6253 95° East 486 559 37,000  Level Memphis Center
07:00PM 35.3297 -93.4644 94° East 486 559 37,000  Level Memphis Center
07:01PM 35.3225 -93.3242 94° East 475 547 37,000  Level Memphis Center
07:02PM 35.3081 -93.1458 96° East 475 547 37,000  Level Memphis Center
07:03PM 35.2947 -92.9825 96° East 481 554 37,000  Level Memphis Center
07:04PM 35.2794 -92.8089 96° East 493 567 37,000  Level Memphis Center
07:05PM 35.2661 -92.6433 96° East 488 562 37,000  Level Memphis Center
07:06PM 35.2544 -92.4778 95° East 488 562 37,000  Level Memphis Center
07:07PM 35.2361 -92.3144 98° East 483 556 37,000  Level Memphis Center
07:08PM 35.2222 -92.1311 95° East 488 562 37,000  Level Memphis Center
07:09PM 35.2078 -91.9683 96° East 482 555 37,000  Level Memphis Center
07:10PM 35.1931 -91.8053 96° East 482 555 37,000  Level Memphis Center
07:11PM 35.1781 -91.6400 96° East 482 555 37,000  Level Memphis Center
07:12PM 35.1631 -91.4772 96° East 482 555 37,000  Level Memphis Center
07:13PM 35.1497 -91.3194 96° East 482 555 37,000  Level Memphis Center
07:14PM 35.1342 -91.1594 97° East 473 544 37,000  Level Memphis Center
07:15PM 35.1183 -90.9917 97° East 473 544 37,000  Level Memphis Center
07:16PM 35.1044 -90.8317 96° East 481 554 37,000  Level Memphis Center
07:17PM 35.0864 -90.6692 98° East 481 554 37,000  Level Memphis Center
07:18PM 35.0719 -90.5067 96° East 481 554 37,000  Level Memphis Center
07:19PM 35.0575 -90.3444 96° East 481 554 37,000  Level Memphis Center
07:20PM 35.1075 -90.1972 67° East 462 532 37,000  Level Memphis Center
07:21PM 35.1572 -90.0625 66° East 467 537 37,000  Level Memphis Center
07:22PM 35.2194 -89.9147 63° Northeast 481 554 37,000  Level Memphis Center
07:23PM 35.2833 -89.7694 62° Northeast 487 560 37,000  Level Memphis Center
07:24PM 35.3453 -89.6239 62° Northeast 480 552 37,000  Level Memphis Center
07:25PM 35.4131 -89.4653 62° Northeast 480 552 37,000  Level Memphis Center
07:26PM 35.4722 -89.3194 63° Northeast 474 545 37,000  Level Memphis Center
07:27PM 35.5336 -89.1758 62° Northeast 474 545 37,000  Level Memphis Center
07:28PM 35.5967 -89.0269 62° Northeast 474 545 37,000  Level Memphis Center
07:29PM 35.6575 -88.8803 63° Northeast 474 545 37,000  Level Memphis Center
07:30PM 35.7164 -88.7386 63° Northeast 474 545 37,000  Level Memphis Center
07:31PM 35.7769 -88.5914 63° Northeast 469 540 37,000  Level Memphis Center
07:32PM 35.8394 -88.4467 62° Northeast 469 540 37,000  Level Memphis Center
07:33PM 35.8975 -88.3044 63° Northeast 469 540 37,000  Level Memphis Center
07:34PM 35.9578 -88.1644 62° Northeast 469 540 37,000  Level Memphis Center
07:35PM 36.0156 -88.0244 63° Northeast 458 527 37,000  Level Memphis Center
07:36PM 36.0775 -87.8814 62° Northeast 458 527 37,000  Level Memphis Center
07:37PM 36.1350 -87.7408 63° Northeast 458 527 37,000  Level Memphis Center
07:38PM 36.1864 -87.6081 64° Northeast 458 527 37,000  Level Memphis Center
07:39PM 36.2458 -87.4669 62° Northeast 458 527 37,000  Level Memphis Center
07:40PM 36.3047 -87.3208 63° Northeast 458 527 37,000  Level Memphis Center
07:41PM 36.3636 -87.1767 63° Northeast 458 527 37,000  Level Memphis Center
07:42PM 36.4306 -87.0194 62° Northeast 458 527 37,000  Level Memphis Center
07:43PM 36.4908 -86.8647 64° Northeast 473 544 37,000  Level Memphis Center
07:44PM 36.5450 -86.7150 66° East 478 550 37,000  Level Memphis Center
07:45PM 36.6050 -86.5650 63° Northeast 472 543 37,000  Level Memphis Center
07:46PM 36.6631 -86.4175 64° Northeast 472 543 37,000  Level Memphis Center
07:47PM 36.7150 -86.2856 64° Northeast 472 543 37,000  Level Memphis Center
07:49PM 36.8283 -85.9869 65° Northeast 479 551 37,000  Level Indianapolis Center
07:50PM 36.8858 -85.8333 65° Northeast 483 556 37,000  Level Indianapolis Center
07:51PM 36.9439 -85.6814 64° Northeast 481 554 37,000 -300 Level Indianapolis Center
07:52PM 37.0022 -85.5272 65° Northeast 484 557 36,500 -540 Descending Indianapolis Center
07:53PM 37.0706 -85.3503 64° Northeast 490 564 35,900 -660 Descending Indianapolis Center
07:54PM 37.1303 -85.1950 64° Northeast 492 566 35,200 -660 Descending Indianapolis Center
07:55PM 37.1875 -85.0406 65° Northeast 485 558 34,600 -540 Descending Indianapolis Center
07:56PM 37.2447 -84.8878 65° Northeast 481 554 34,100 -540 Descending Indianapolis Center
07:57PM 37.3019 -84.7353 65° Northeast 481 554 33,500 -780 Descending Indianapolis Center
07:58PM 37.3581 -84.5806 65° Northeast 484 557 32,600 -960 Descending Indianapolis Center
07:59PM 37.4133 -84.4256 66° East 484 557 31,600 -840 Descending Indianapolis Center
08:00PM 37.4722 -84.2703 64° Northeast 487 560 31,000 -300 Descending Indianapolis Center
08:01PM 37.5297 -84.1122 65° Northeast 494 568 31,000  Level Indianapolis Center
08:02PM 37.5858 -83.9583 65° Northeast 484 557 31,000  Level Indianapolis Center
08:03PM 37.6406 -83.8042 66° East 480 552 31,000  Level Indianapolis Center
08:04PM 37.7056 -83.6239 65° Northeast 480 552 31,000  Level Indianapolis Center
08:05PM 37.7608 -83.4706 65° Northeast 479 551 31,000  Level Indianapolis Center
08:06PM 37.8156 -83.3167 66° East 479 551 31,000  Level Indianapolis Center
08:07PM 37.8703 -83.1628 66° East 477 549 31,000  Level Indianapolis Center
08:08PM 37.9253 -83.0061 66° East 484 557 31,000  Level Indianapolis Center
08:09PM 37.9789 -82.8497 66° East 484 557 31,000  Level Indianapolis Center
08:10PM 38.0339 -82.6914 66° East 489 563 31,000  Level Indianapolis Center
08:11PM 38.0881 -82.5333 66° East 488 562 31,000  Level Indianapolis Center
08:12PM 38.1339 -82.3544 72° East 493 567 31,000  Level Indianapolis Center
08:13PM 38.1511 -82.1803 83° East 497 572 31,000  Level Indianapolis Center
08:14PM 38.1694 -82.0086 82° East 494 568 31,000  Level Indianapolis Center
08:15PM 38.1856 -81.8336 83° East 500 575 31,000  Level Indianapolis Center
08:16PM 38.2006 -81.6586 84° East 502 578 31,000  Level Indianapolis Center
08:17PM 38.2158 -81.4833 84° East 503 579 31,000  Level Indianapolis Center
08:18PM 38.2303 -81.3081 84° East 503 579 31,000  Level Indianapolis Center
08:19PM 38.2528 -81.0981 82° East 504 580 31,000  Level Indianapolis Center
08:20PM 38.2811 -80.9272 78° East 498 573 31,000  Level Indianapolis Center
08:21PM 38.3119 -80.7528 77° East 505 581 31,000  Level Indianapolis Center
08:22PM 38.3400 -80.5953 77° East 499 574 31,000  Level Washington Center
08:23PM 38.3683 -80.4169 78° East 505 581 31,000  Level Washington Center
08:24PM 38.3953 -80.2597 78° East 505 581 31,000  Level Washington Center
08:25PM 38.4250 -80.0839 78° East 505 581 31,000 -420 Level Washington Center
08:26PM 38.4522 -79.9081 79° East 505 581 30,200 -1,620 Descending Washington Center
08:27PM 38.4814 -79.7347 78° East 505 581 27,800 -2,640 Descending Washington Center
08:28PM 38.5083 -79.5531 79° East 491 565 25,100 -2,040 Descending Washington Center
08:29PM 38.5322 -79.3950 79° East 471 542 23,800 -1,560 Descending Washington Center
08:30PM 38.5575 -79.2531 77° East 441 507 22,000 -1,620 Descending Washington Center
08:31PM 38.5756 -79.1369 79° East 423 487 20,600 -1,860 Descending Washington Center
08:32PM 38.6011 -78.9736 79° East 401 461 18,300 -2,040 Descending Washington Center
08:33PM 38.6236 -78.8364 78° East 388 447 16,600 -1,740 Descending Washington Center
08:34PM 38.6519 -78.7100 74° East 380 437 14,900 -1,680 Descending Washington Center
08:35PM 38.6842 -78.5889 71° East 364 419 13,300 -1,680 Descending Washington Center
08:36PM 38.7100 -78.4783 73° East 343 395 11,500 -1,200 Descending Washington Center
08:37PM 38.7394 -78.3703 71° East 329 379 10,900 -720 Descending Washington Center
08:38PM 38.7914 -78.2978 47° Northeast 285 328 10,100 -960 Descending Washington Center
08:39PM 38.8408 -78.2275 48° Northeast 274 315 9,000 -840 Descending Washington Center
08:40PM 38.8739 -78.1381 65° Northeast 274 315 8,400 -600 Descending Washington Center
08:41PM 38.8947 -78.0453 74° East 269 310 7,800 -900 Descending Washington Center
08:42PM 38.9150 -77.9633 72° East 258 297 6,700 -900 Descending Washington Center
08:43PM 38.9356 -77.8786 73° East 246 283 6,000 -360 Descending Washington Center
08:44PM 38.9556 -77.8019 71° East 246 283 6,000  Level Washington Center
08:46PM 38.9500 -77.6333 92° East 251 289 6,000  Level Potomac TRACON
08:47PM 38.8833 -77.6000 159° South 251 289 6,000  Level Potomac TRACON
08:48PM 38.8167 -77.5667 159° South 250 288 6,000 -480 Level Potomac TRACON
08:49PM 38.7500 -77.5833 191° South 241 277 5,100 -540 Descending Potomac TRACON
08:50PM 38.7000 -77.5500 153° Southeast 253 291 5,000 -420 Descending Potomac TRACON
08:51PM 38.7167 -77.4833 72° East 227 261 4,300 -780 Descending Potomac TRACON
08:52PM 38.7833 -77.4667 11° North 188 216 3,400 -900 Descending Potomac TRACON
08:53PM 38.8167 -77.4667 360° North 186 214 2,500 -1,020 Descending Potomac TRACON